Time;durP1;ratioP1;P1;durP2;ratioP2;P2;SDS_P1;SDS_P2;PMS_P1;PMS_P2;Temp;Humidity;BMP_temperature;BMP_pressure;BME280_temperature;BME280_humidity;BME280_pressure;Samples;Min_cycle;Max_cycle;Signal;HPM_P1;HPM_P2
2023/10/04 00:00:42;;;;;;;;;;;18.90;87.60;;;;;;4181771;28;20375;-54
2023/10/04 00:03:23;;;;;;;;;;;18.90;87.80;;;;;;4171482;28;19936;-54
2023/10/04 00:06:04;;;;;;;;;;;18.90;88.00;;;;;;4171217;28;20734;-56
2023/10/04 00:08:44;;;;;;;;;;;18.80;87.90;;;;;;4170857;28;19935;-55
2023/10/04 00:11:26;;;;;;;;;;;18.80;88.60;;;;;;4171858;28;19936;-54
2023/10/04 00:14:08;;;;;;;;;;;18.90;87.50;;;;;;4171464;28;20428;-52
2023/10/04 00:16:49;;;;;;;;;;;18.80;87.50;;;;;;4144594;28;19933;-55
2023/10/04 00:19:31;;;;;;;;;;;18.80;87.40;;;;;;4155342;28;20022;-55
2023/10/04 00:22:12;;;;;;;;;;;18.80;87.60;;;;;;4185806;28;19939;-54
2023/10/04 00:24:53;;;;;;;;;;;18.80;87.90;;;;;;4172052;28;19936;-54
2023/10/04 00:27:34;;;;;;;;;;;18.80;88.00;;;;;;4171573;28;20667;-56
2023/10/04 00:30:18;;;;;;;;;;;18.80;88.10;;;;;;4171694;28;20062;-55
2023/10/04 00:33:02;;;;;;;;;;;18.80;88.10;;;;;;4170301;28;19982;-54
2023/10/04 00:35:43;;;;;;;;;;;18.70;87.80;;;;;;4171591;28;19932;-54
2023/10/04 00:38:24;;;;;;;;;;;18.70;87.70;;;;;;4170827;28;19993;-54
2023/10/04 00:41:06;;;;;;;;;;;18.70;87.80;;;;;;4173755;28;20390;-52
2023/10/04 00:43:49;;;;;;;;;;;18.70;87.90;;;;;;4172901;28;19936;-55
2023/10/04 00:46:35;;;;;;;;;;;18.70;87.90;;;;;;4184853;28;20287;-53
2023/10/04 00:49:16;;;;;;;;;;;18.70;88.10;;;;;;4174463;28;19963;-54
2023/10/04 00:51:58;;;;;;;;;;;18.70;88.10;;;;;;4173270;28;19959;-56
2023/10/04 00:54:40;;;;;;;;;;;18.70;88.10;;;;;;4174143;28;20006;-52
2023/10/04 00:57:20;;;;;;;;;;;18.70;88.20;;;;;;4174186;28;20414;-52
2023/10/04 01:00:05;;;;;;;;;;;18.70;88.10;;;;;;4173758;28;19931;-53
2023/10/04 01:02:48;;;;;;;;;;;18.70;88.00;;;;;;4174538;28;19931;-54
2023/10/04 01:05:30;;;;;;;;;;;18.70;88.10;;;;;;4174374;28;20433;-54
2023/10/04 01:08:11;;;;;;;;;;;18.60;88.20;;;;;;4174285;28;21087;-54
2023/10/04 01:10:54;;;;;;;;;;;18.60;88.10;;;;;;4196060;28;19936;-55
2023/10/04 01:13:36;;;;;;;;;;;18.60;87.90;;;;;;4180024;28;19994;-53
2023/10/04 01:16:17;;;;;;;;;;;18.60;88.90;;;;;;4183978;28;19978;-53
2023/10/04 01:18:59;;;;;;;;;;;18.60;88.00;;;;;;4190876;28;19947;-52
2023/10/04 01:21:39;;;;;;;;;;;18.60;88.30;;;;;;4186075;28;20055;-55
2023/10/04 01:24:22;;;;;;;;;;;18.60;88.30;;;;;;4174128;28;19932;-54
2023/10/04 01:27:03;;;;;;;;;;;18.60;88.20;;;;;;4195885;28;19935;-53
2023/10/04 01:29:43;;;;;;;;;;;18.60;88.40;;;;;;4189860;28;20058;-54
2023/10/04 01:32:24;;;;;;;;;;;18.60;88.30;;;;;;4186200;28;19937;-55
2023/10/04 01:35:08;;;;;;;;;;;18.60;88.20;;;;;;4174071;28;19932;-52
2023/10/04 01:37:48;;;;;;;;;;;18.60;88.10;;;;;;4172810;28;19935;-51
2023/10/04 01:40:32;;;;;;;;;;;18.60;87.80;;;;;;4173696;28;19970;-55
2023/10/04 01:43:15;;;;;;;;;;;18.60;87.90;;;;;;4173156;28;19931;-52
2023/10/04 01:45:59;;;;;;;;;;;18.50;88.10;;;;;;4173806;28;19931;-53
2023/10/04 01:48:42;;;;;;;;;;;18.60;88.20;;;;;;4174538;28;20378;-55
2023/10/04 01:51:23;;;;;;;;;;;18.60;88.30;;;;;;4172771;28;19936;-54
2023/10/04 01:54:04;;;;;;;;;;;18.50;87.90;;;;;;4173458;28;20010;-54
2023/10/04 01:56:47;;;;;;;;;;;18.50;88.10;;;;;;4174094;28;20391;-53
2023/10/04 01:59:28;;;;;;;;;;;18.50;88.90;;;;;;4172237;28;20043;-54
2023/10/04 02:02:09;;;;;;;;;;;18.50;88.20;;;;;;4193301;28;19932;-52
2023/10/04 02:04:53;;;;;;;;;;;18.50;88.30;;;;;;4173481;28;19936;-55
2023/10/04 02:07:33;;;;;;;;;;;18.50;88.30;;;;;;4173648;28;20051;-54
2023/10/04 02:10:14;;;;;;;;;;;18.50;88.40;;;;;;4157782;28;19932;-54
2023/10/04 02:12:56;;;;;;;;;;;18.50;88.50;;;;;;4163332;28;20288;-54
2023/10/04 02:15:37;;;;;;;;;;;18.50;88.70;;;;;;4152423;28;20304;-55
2023/10/04 02:18:19;;;;;;;;;;;18.50;88.70;;;;;;4163522;28;19979;-54
2023/10/04 02:21:00;;;;;;;;;;;18.50;88.70;;;;;;4151117;28;19932;-51
2023/10/04 02:23:42;;;;;;;;;;;18.50;88.80;;;;;;4173706;28;19935;-54
2023/10/04 02:26:23;;;;;;;;;;;18.50;88.70;;;;;;4172354;28;19935;-52
2023/10/04 02:29:09;;;;;;;;;;;18.50;88.60;;;;;;4173727;28;19940;-54
2023/10/04 02:31:50;;;;;;;;;;;18.50;89.10;;;;;;4172382;28;19979;-54
2023/10/04 02:34:31;;;;;;;;;;;18.50;88.10;;;;;;4168240;28;19963;-55
2023/10/04 02:37:13;;;;;;;;;;;18.50;89.00;;;;;;4173123;28;19935;-55
2023/10/04 02:39:54;;;;;;;;;;;18.40;88.30;;;;;;4183316;28;19932;-55
2023/10/04 02:42:35;;;;;;;;;;;18.40;88.50;;;;;;4173398;28;19931;-50
2023/10/04 02:45:19;;;;;;;;;;;18.50;88.70;;;;;;4172144;28;19947;-54
2023/10/04 02:48:01;;;;;;;;;;;18.40;88.60;;;;;;4171710;28;19935;-52
2023/10/04 02:50:43;;;;;;;;;;;18.40;88.70;;;;;;4167258;28;20367;-54
2023/10/04 02:53:26;;;;;;;;;;;18.40;89.20;;;;;;4156246;28;19932;-53
2023/10/04 02:56:09;;;;;;;;;;;18.40;88.80;;;;;;4176840;28;19936;-54
2023/10/04 02:58:54;;;;;;;;;;;18.40;88.80;;;;;;4173354;28;20067;-54
2023/10/04 03:01:36;;;;;;;;;;;18.40;88.50;;;;;;4183212;28;20402;-53
2023/10/04 03:04:17;;;;;;;;;;;18.40;88.70;;;;;;4183053;28;19935;-53
2023/10/04 03:06:58;;;;;;;;;;;18.40;88.50;;;;;;4171975;28;20341;-55
2023/10/04 03:09:39;;;;;;;;;;;18.40;88.50;;;;;;4171360;28;19932;-54
2023/10/04 03:12:24;;;;;;;;;;;18.40;88.60;;;;;;4194399;28;19943;-54
2023/10/04 03:15:05;;;;;;;;;;;18.40;88.40;;;;;;4172666;28;20352;-54
2023/10/04 03:17:50;;;;;;;;;;;18.40;88.90;;;;;;4183365;28;19970;-50
2023/10/04 03:20:32;;;;;;;;;;;18.40;88.90;;;;;;4170482;28;19935;-55
2023/10/04 03:23:19;;;;;;;;;;;18.40;89.00;;;;;;4177869;28;19932;-54
2023/10/04 03:26:01;;;;;;;;;;;18.40;89.90;;;;;;4164616;28;19940;-53
2023/10/04 03:28:42;;;;;;;;;;;18.40;89.00;;;;;;4194600;28;19977;-51
2023/10/04 03:31:23;;;;;;;;;;;18.30;89.00;;;;;;4172707;28;19932;-53
2023/10/04 03:34:09;;;;;;;;;;;18.40;89.10;;;;;;4194714;28;20382;-53
2023/10/04 03:36:51;;;;;;;;;;;18.40;89.10;;;;;;4172213;28;20406;-52
2023/10/04 03:39:32;;;;;;;;;;;18.40;89.20;;;;;;4193977;28;20398;-51
2023/10/04 03:42:13;;;;;;;;;;;18.30;89.20;;;;;;4182931;28;20141;-52
2023/10/04 03:44:55;;;;;;;;;;;18.40;89.30;;;;;;4170584;28;20394;-54
2023/10/04 03:47:37;;;;;;;;;;;18.30;89.30;;;;;;4172461;28;20074;-50
2023/10/04 03:50:20;;;;;;;;;;;18.40;89.40;;;;;;4170685;28;20063;-53
2023/10/04 03:53:01;;;;;;;;;;;18.30;89.30;;;;;;4172139;28;19935;-51
2023/10/04 03:55:42;;;;;;;;;;;18.30;89.20;;;;;;4184967;28;19936;-53
2023/10/04 03:58:24;;;;;;;;;;;18.30;89.10;;;;;;4161189;28;20067;-53
2023/10/04 04:01:07;;;;;;;;;;;18.30;89.20;;;;;;4169207;28;20403;-52
2023/10/04 04:03:49;;;;;;;;;;;18.30;89.30;;;;;;4172178;28;20062;-51
2023/10/04 04:06:31;;;;;;;;;;;18.30;89.30;;;;;;4170897;28;19935;-54
2023/10/04 04:09:13;;;;;;;;;;;18.30;89.30;;;;;;4156504;28;19932;-53
2023/10/04 04:11:54;;;;;;;;;;;18.30;89.30;;;;;;4187016;28;19931;-50
2023/10/04 04:14:35;;;;;;;;;;;18.30;89.30;;;;;;4198659;28;20402;-52
2023/10/04 04:17:15;;;;;;;;;;;18.30;89.30;;;;;;4188795;28;20494;-53
2023/10/04 04:19:56;;;;;;;;;;;18.30;89.30;;;;;;4179372;28;19951;-54
2023/10/04 04:22:39;;;;;;;;;;;18.30;89.30;;;;;;4193697;28;19931;-54
2023/10/04 04:25:20;;;;;;;;;;;18.30;89.90;;;;;;4170377;28;20006;-54
2023/10/04 04:28:04;;;;;;;;;;;18.30;89.20;;;;;;4193150;28;19932;-50
2023/10/04 04:30:46;;;;;;;;;;;18.30;89.10;;;;;;4193854;28;19955;-53
2023/10/04 04:33:29;;;;;;;;;;;18.30;89.40;;;;;;4159158;28;20422;-51
2023/10/04 04:36:17;;;;;;;;;;;18.30;89.60;;;;;;4180619;28;19935;-55
2023/10/04 04:39:04;;;;;;;;;;;18.30;89.60;;;;;;4180819;28;19936;-54
2023/10/04 04:41:49;;;;;;;;;;;18.20;89.60;;;;;;4175751;28;19951;-55
2023/10/04 04:44:38;;;;;;;;;;;18.30;89.70;;;;;;4175808;28;20430;-55
2023/10/04 04:47:19;;;;;;;;;;;18.20;89.60;;;;;;4163931;28;19951;-54
2023/10/04 04:50:00;;;;;;;;;;;18.30;89.60;;;;;;4159709;28;19936;-50
2023/10/04 04:52:42;;;;;;;;;;;18.20;89.50;;;;;;4177985;28;19933;-54
2023/10/04 04:55:26;;;;;;;;;;;18.20;89.50;;;;;;4159015;28;19940;-53
2023/10/04 04:58:07;;;;;;;;;;;18.30;90.10;;;;;;4170424;28;19936;-55
2023/10/04 05:00:50;;;;;;;;;;;18.20;89.40;;;;;;4170208;28;19952;-54
2023/10/04 05:03:31;;;;;;;;;;;18.20;89.50;;;;;;4182200;28;20429;-56
2023/10/04 05:06:20;;;;;;;;;;;18.20;90.10;;;;;;4171596;28;19952;-51
2023/10/04 05:09:01;;;;;;;;;;;18.20;89.60;;;;;;4171147;28;20334;-53
2023/10/04 05:11:45;;;;;;;;;;;18.30;89.50;;;;;;4171096;28;19936;-51
2023/10/04 05:14:26;;;;;;;;;;;18.20;89.20;;;;;;4164603;28;19932;-55
2023/10/04 05:17:06;;;;;;;;;;;18.20;90.10;;;;;;4171405;28;20039;-50
2023/10/04 05:19:47;;;;;;;;;;;18.20;89.50;;;;;;4171246;28;19975;-53
2023/10/04 05:22:28;;;;;;;;;;;18.20;89.50;;;;;;4171274;28;19995;-51
2023/10/04 05:25:08;;;;;;;;;;;18.20;89.60;;;;;;4170865;28;19936;-49
2023/10/04 05:27:51;;;;;;;;;;;18.20;89.70;;;;;;4173958;28;19953;-54
2023/10/04 05:30:31;;;;;;;;;;;18.20;89.60;;;;;;4173855;28;19935;-52
2023/10/04 05:33:13;;;;;;;;;;;18.20;89.60;;;;;;4174145;28;19932;-51
2023/10/04 05:35:56;;;;;;;;;;;18.20;89.70;;;;;;4163568;28;20086;-52
2023/10/04 05:38:36;;;;;;;;;;;18.20;89.70;;;;;;4174296;28;19932;-53
2023/10/04 05:41:18;;;;;;;;;;;18.20;89.70;;;;;;4172732;28;20721;-50
2023/10/04 05:44:00;;;;;;;;;;;18.20;89.70;;;;;;4185796;28;20395;-51
2023/10/04 05:46:44;;;;;;;;;;;18.20;89.60;;;;;;4174252;28;20390;-53
2023/10/04 05:49:26;;;;;;;;;;;18.20;89.60;;;;;;4174254;28;19947;-55
2023/10/04 05:52:06;;;;;;;;;;;18.20;89.60;;;;;;4173934;28;19932;-49
2023/10/04 05:54:47;;;;;;;;;;;18.20;89.70;;;;;;4173533;28;20291;-51
2023/10/04 05:57:28;;;;;;;;;;;18.20;90.40;;;;;;4189931;28;20292;-50
2023/10/04 06:00:22;;;;;;;;;;;18.20;91.10;;;;;;4190181;28;19932;-48
2023/10/04 06:03:05;;;;;;;;;;;18.20;92.30;;;;;;4188862;28;20587;-49
2023/10/04 06:05:45;;;;;;;;;;;18.20;92.40;;;;;;4173674;28;19940;-51
2023/10/04 06:08:26;;;;;;;;;;;18.20;92.10;;;;;;4172981;28;19935;-53
2023/10/04 06:11:06;;;;;;;;;;;18.20;91.80;;;;;;4167627;28;20397;-51
2023/10/04 06:13:47;;;;;;;;;;;18.20;91.60;;;;;;4173893;28;19936;-52
2023/10/04 06:16:29;;;;;;;;;;;18.20;91.30;;;;;;4173013;28;19932;-52
2023/10/04 06:19:10;;;;;;;;;;;18.20;91.10;;;;;;4173568;28;20501;-53
2023/10/04 06:22:03;;;;;;;;;;;18.20;90.90;;;;;;4172767;28;19931;-53
2023/10/04 06:24:45;;;;;;;;;;;18.20;90.70;;;;;;4170735;28;20070;-52
2023/10/04 06:27:26;;;;;;;;;;;18.20;91.00;;;;;;4157546;28;20399;-53
2023/10/04 06:30:08;;;;;;;;;;;18.20;90.50;;;;;;4172856;28;20067;-54
2023/10/04 06:32:51;;;;;;;;;;;18.10;90.30;;;;;;4172117;28;20069;-53
2023/10/04 06:35:33;;;;;;;;;;;18.20;90.30;;;;;;4173380;28;20051;-53
2023/10/04 06:38:14;;;;;;;;;;;18.10;90.20;;;;;;4172209;28;19931;-52
2023/10/04 06:40:54;;;;;;;;;;;18.10;90.10;;;;;;4172828;28;19936;-52
2023/10/04 06:43:36;;;;;;;;;;;18.10;90.00;;;;;;4165370;28;19936;-52
2023/10/04 06:46:16;;;;;;;;;;;18.10;90.00;;;;;;4172874;28;19932;-54
2023/10/04 06:48:58;;;;;;;;;;;18.10;89.90;;;;;;4172918;28;19936;-54
2023/10/04 06:51:39;;;;;;;;;;;18.10;90.20;;;;;;4171751;28;19936;-52
2023/10/04 06:54:19;;;;;;;;;;;18.10;89.60;;;;;;4163964;28;20317;-53
2023/10/04 06:57:00;;;;;;;;;;;18.10;89.60;;;;;;4172594;28;20394;-53
2023/10/04 06:59:40;;;;;;;;;;;18.10;90.10;;;;;;4156104;28;19932;-52
2023/10/04 07:02:23;;;;;;;;;;;18.10;89.40;;;;;;4169116;28;20398;-51
2023/10/04 07:05:05;;;;;;;;;;;18.10;89.30;;;;;;4173131;28;20018;-54
2023/10/04 07:07:47;;;;;;;;;;;18.10;89.30;;;;;;4172628;28;19931;-55
2023/10/04 07:10:29;;;;;;;;;;;18.10;89.30;;;;;;4172179;28;20646;-53
2023/10/04 07:13:10;;;;;;;;;;;18.10;89.30;;;;;;4172435;28;19990;-55
2023/10/04 07:15:51;;;;;;;;;;;18.10;89.20;;;;;;4168230;28;19935;-52
2023/10/04 07:18:32;;;;;;;;;;;18.10;89.40;;;;;;4171848;28;19931;-54
2023/10/04 07:21:15;;;;;;;;;;;18.10;89.80;;;;;;4172498;28;19936;-58
2023/10/04 07:23:55;;;;;;;;;;;18.10;90.40;;;;;;4170542;28;19949;-57
2023/10/04 07:26:36;;;;;;;;;;;18.10;90.00;;;;;;4172290;28;20271;-57
2023/10/04 07:29:17;;;;;;;;;;;18.10;90.00;;;;;;4172091;28;20063;-58
2023/10/04 07:31:58;;;;;;;;;;;18.20;89.90;;;;;;4165275;28;19931;-57
2023/10/04 07:34:38;;;;;;;;;;;18.20;90.30;;;;;;4172237;28;20382;-57
2023/10/04 07:37:20;;;;;;;;;;;18.20;89.80;;;;;;4155594;28;19932;-57
2023/10/04 07:40:01;;;;;;;;;;;18.20;89.60;;;;;;4155541;28;19935;-58
2023/10/04 07:42:45;;;;;;;;;;;18.20;89.60;;;;;;4155575;28;20042;-57
2023/10/04 07:45:28;;;;;;;;;;;18.20;89.40;;;;;;4157887;28;20295;-57
2023/10/04 07:48:12;;;;;;;;;;;18.20;89.40;;;;;;4164464;28;19932;-58
2023/10/04 07:50:53;;;;;;;;;;;18.20;89.30;;;;;;4171901;28;19936;-57
2023/10/04 07:53:36;;;;;;;;;;;18.20;89.20;;;;;;4155596;28;19931;-57
2023/10/04 07:56:19;;;;;;;;;;;18.30;89.10;;;;;;4155570;28;19940;-57
2023/10/04 07:59:01;;;;;;;;;;;18.30;89.10;;;;;;4169330;28;20295;-57
2023/10/04 08:01:42;;;;;;;;;;;18.30;89.90;;;;;;4171715;28;19954;-57
2023/10/04 08:04:23;;;;;;;;;;;18.30;89.00;;;;;;4171747;28;19936;-57
2023/10/04 08:07:12;;;;;;;;;;;18.40;88.90;;;;;;4171280;28;19931;-57
2023/10/04 08:09:53;;;;;;;;;;;18.40;88.90;;;;;;4171782;28;19936;-58
2023/10/04 08:12:34;;;;;;;;;;;18.30;89.60;;;;;;4171786;28;19973;-57
2023/10/04 08:15:15;;;;;;;;;;;18.40;88.80;;;;;;4171500;28;20421;-50
2023/10/04 08:17:56;;;;;;;;;;;18.40;88.80;;;;;;4171555;28;19931;-53
2023/10/04 08:20:38;;;;;;;;;;;18.50;88.90;;;;;;4171807;28;20014;-54
2023/10/04 08:23:20;;;;;;;;;;;18.50;89.80;;;;;;4171262;28;19940;-57
2023/10/04 08:26:02;;;;;;;;;;;18.50;89.00;;;;;;4171782;28;20362;-57
2023/10/04 08:28:43;;;;;;;;;;;18.50;89.10;;;;;;4170985;28;20382;-57
2023/10/04 08:31:25;;;;;;;;;;;18.50;89.10;;;;;;4180732;28;19935;-50
2023/10/04 08:34:06;;;;;;;;;;;18.50;89.00;;;;;;4170782;28;19974;-53
2023/10/04 08:36:46;;;;;;;;;;;18.50;88.90;;;;;;4170138;28;20358;-52
2023/10/04 08:39:27;;;;;;;;;;;18.50;89.80;;;;;;4171285;28;19936;-50
2023/10/04 08:42:09;;;;;;;;;;;18.50;88.80;;;;;;4170534;28;19932;-52
2023/10/04 08:44:50;;;;;;;;;;;18.50;88.90;;;;;;4168454;28;20071;-53
2023/10/04 08:47:31;;;;;;;;;;;18.50;88.80;;;;;;4170877;28;20284;-51
2023/10/04 08:50:15;;;;;;;;;;;18.50;88.90;;;;;;4171011;28;19931;-52
2023/10/04 08:53:03;;;;;;;;;;;18.50;88.80;;;;;;4170553;28;19935;-51
2023/10/04 08:55:47;;;;;;;;;;;18.50;88.80;;;;;;4154233;28;19940;-51
2023/10/04 08:58:31;;;;;;;;;;;18.50;88.90;;;;;;4160531;28;19932;-51
2023/10/04 09:01:13;;;;;;;;;;;18.60;88.90;;;;;;4173234;28;19931;-53
2023/10/04 09:03:55;;;;;;;;;;;18.60;88.90;;;;;;4174283;28;19935;-51
2023/10/04 09:06:38;;;;;;;;;;;18.60;88.80;;;;;;4173931;28;19932;-53
2023/10/04 09:09:18;;;;;;;;;;;18.60;88.70;;;;;;4174353;28;19936;-53
2023/10/04 09:11:59;;;;;;;;;;;18.60;88.90;;;;;;4174699;28;19989;-51
2023/10/04 09:14:42;;;;;;;;;;;18.60;88.90;;;;;;4174246;28;19943;-53
2023/10/04 09:17:25;;;;;;;;;;;18.60;88.80;;;;;;4174003;28;19932;-51
2023/10/04 09:20:11;;;;;;;;;;;18.70;89.50;;;;;;4169668;28;19973;-54
2023/10/04 09:22:53;;;;;;;;;;;18.70;88.60;;;;;;4173679;28;20063;-53
2023/10/04 09:25:35;;;;;;;;;;;18.60;88.50;;;;;;4174064;28;19935;-51
2023/10/04 09:28:16;;;;;;;;;;;18.60;88.60;;;;;;4173444;28;19936;-53
2023/10/04 09:31:08;;;;;;;;;;;18.70;88.70;;;;;;4173004;28;20267;-51
2023/10/04 09:33:49;;;;;;;;;;;18.60;88.70;;;;;;4172857;28;19931;-51
2023/10/04 09:36:33;;;;;;;;;;;18.70;88.70;;;;;;4173923;28;19935;-53
2023/10/04 09:39:23;;;;;;;;;;;18.70;88.70;;;;;;4173657;28;20463;-54
2023/10/04 09:42:04;;;;;;;;;;;18.70;88.70;;;;;;4173375;28;19948;-51
2023/10/04 09:44:45;;;;;;;;;;;18.70;88.70;;;;;;4173849;28;19936;-51
2023/10/04 09:47:37;;;;;;;;;;;18.70;88.60;;;;;;4173679;28;19935;-53
2023/10/04 09:50:22;;;;;;;;;;;18.70;88.50;;;;;;4172277;28;20067;-50
2023/10/04 09:53:03;;;;;;;;;;;18.80;88.50;;;;;;4172879;28;19936;-50
2023/10/04 09:55:45;;;;;;;;;;;18.80;88.40;;;;;;4156667;28;19978;-52
2023/10/04 09:58:29;;;;;;;;;;;18.80;88.30;;;;;;4157129;28;19936;-51
2023/10/04 10:01:11;;;;;;;;;;;18.80;88.10;;;;;;4157058;28;19948;-51
2023/10/04 10:03:56;;;;;;;;;;;18.80;88.00;;;;;;4168007;28;20295;-49
2023/10/04 10:06:45;;;;;;;;;;;18.80;88.00;;;;;;4173421;28;20003;-50
2023/10/04 10:09:29;;;;;;;;;;;18.80;88.70;;;;;;4173243;28;19935;-53
2023/10/04 10:12:11;;;;;;;;;;;18.80;87.60;;;;;;4166359;28;20271;-50
2023/10/04 10:14:51;;;;;;;;;;;18.90;87.50;;;;;;4172907;28;19935;-50
2023/10/04 10:17:33;;;;;;;;;;;18.90;87.20;;;;;;4156650;28;19948;-51
2023/10/04 10:20:16;;;;;;;;;;;18.90;87.70;;;;;;4156668;28;19939;-53
2023/10/04 10:23:13;;;;;;;;;;;18.90;86.50;;;;;;4156285;28;19978;-53
2023/10/04 10:26:12;;;;;;;;;;;18.90;86.20;;;;;;4155556;28;20066;-51
2023/10/04 10:28:59;;;;;;;;;;;19.00;86.00;;;;;;4168466;28;20395;-50
2023/10/04 10:31:40;;;;;;;;;;;19.00;85.90;;;;;;4173473;28;19932;-50
2023/10/04 10:34:22;;;;;;;;;;;19.00;85.60;;;;;;4159178;28;20486;-53
2023/10/04 10:37:12;;;;;;;;;;;19.00;85.30;;;;;;4172513;28;20395;-51
2023/10/04 10:39:53;;;;;;;;;;;19.00;85.80;;;;;;4170001;28;19932;-52
2023/10/04 10:42:48;;;;;;;;;;;19.00;84.60;;;;;;4171945;28;19931;-53
2023/10/04 10:45:30;;;;;;;;;;;19.00;84.30;;;;;;4188391;28;19932;-53
2023/10/04 10:48:12;;;;;;;;;;;19.00;84.10;;;;;;4189065;28;19935;-54
2023/10/04 10:50:53;;;;;;;;;;;19.00;84.00;;;;;;4187692;28;20432;-53
2023/10/04 10:53:35;;;;;;;;;;;19.00;83.80;;;;;;4185107;28;19932;-54
2023/10/04 10:56:16;;;;;;;;;;;19.00;83.60;;;;;;4157533;28;20304;-53
2023/10/04 10:58:57;;;;;;;;;;;19.00;83.60;;;;;;4172583;28;19971;-52
2023/10/04 11:01:38;;;;;;;;;;;19.00;83.40;;;;;;4156437;28;19974;-54
2023/10/04 11:04:19;;;;;;;;;;;19.00;83.40;;;;;;4160855;28;19944;-52
2023/10/04 11:06:59;;;;;;;;;;;19.00;83.20;;;;;;4172853;28;19932;-52
2023/10/04 11:09:43;;;;;;;;;;;19.10;83.20;;;;;;4171415;28;20014;-50
2023/10/04 11:12:34;;;;;;;;;;;19.00;83.10;;;;;;4172471;28;20448;-51
2023/10/04 11:15:17;;;;;;;;;;;19.10;84.00;;;;;;4168556;28;19936;-52
2023/10/04 11:17:58;;;;;;;;;;;19.00;83.00;;;;;;4170878;28;20473;-50
2023/10/04 11:20:39;;;;;;;;;;;19.10;83.00;;;;;;4172388;28;19932;-48
2023/10/04 11:23:20;;;;;;;;;;;19.00;82.90;;;;;;4172285;28;19947;-53
2023/10/04 11:26:06;;;;;;;;;;;19.00;82.90;;;;;;4172267;28;19936;-50
2023/10/04 11:28:49;;;;;;;;;;;19.00;82.80;;;;;;4172022;28;20401;-52
2023/10/04 11:31:30;;;;;;;;;;;19.00;82.90;;;;;;4171827;28;19935;-54
2023/10/04 11:34:22;;;;;;;;;;;19.00;82.80;;;;;;4170447;28;20394;-55
2023/10/04 11:37:03;;;;;;;;;;;19.00;82.80;;;;;;4170178;28;19935;-54
2023/10/04 11:39:45;;;;;;;;;;;19.00;82.80;;;;;;4186784;28;20599;-51
2023/10/04 11:42:27;;;;;;;;;;;19.00;82.90;;;;;;4188450;28;19940;-54
2023/10/04 11:45:18;;;;;;;;;;;19.00;82.80;;;;;;4187509;28;19936;-52
2023/10/04 11:48:00;;;;;;;;;;;19.00;82.80;;;;;;4188544;28;19962;-51
2023/10/04 11:50:42;;;;;;;;;;;19.00;82.90;;;;;;4188672;28;20279;-52
2023/10/04 11:53:33;;;;;;;;;;;19.00;82.90;;;;;;4187787;28;19931;-53
2023/10/04 11:56:16;;;;;;;;;;;19.00;83.60;;;;;;4169238;28;24202;-52
2023/10/04 11:58:58;;;;;;;;;;;19.00;82.80;;;;;;4166311;28;19935;-52
2023/10/04 12:01:44;;;;;;;;;;;19.00;82.90;;;;;;4171881;28;19936;-54
2023/10/04 12:04:25;;;;;;;;;;;19.00;82.90;;;;;;4171987;28;19932;-54
2023/10/04 12:07:07;;;;;;;;;;;19.00;83.20;;;;;;4171380;28;19952;-52
2023/10/04 12:09:48;;;;;;;;;;;19.00;83.10;;;;;;4171805;28;19932;-51
2023/10/04 12:12:29;;;;;;;;;;;19.00;83.10;;;;;;4188009;28;19932;-51
2023/10/04 12:15:14;;;;;;;;;;;19.00;83.10;;;;;;4145936;28;20007;-53
2023/10/04 12:17:54;;;;;;;;;;;19.10;83.10;;;;;;4155527;28;20368;-53
2023/10/04 12:20:36;;;;;;;;;;;19.10;83.20;;;;;;4155068;28;19933;-51
2023/10/04 12:23:18;;;;;;;;;;;19.10;83.10;;;;;;4161091;28;20002;-52
2023/10/04 12:25:59;;;;;;;;;;;19.10;83.10;;;;;;4170643;28;19936;-50
2023/10/04 12:28:40;;;;;;;;;;;19.10;83.00;;;;;;4164548;28;19974;-54
2023/10/04 12:31:22;;;;;;;;;;;19.10;82.90;;;;;;4171337;28;20402;-51
2023/10/04 12:34:02;;;;;;;;;;;19.10;82.70;;;;;;4170900;28;20043;-51
2023/10/04 12:36:46;;;;;;;;;;;19.10;82.70;;;;;;4174808;28;20287;-53
2023/10/04 12:39:38;;;;;;;;;;;19.10;82.80;;;;;;4174716;28;20292;-54
2023/10/04 12:42:19;;;;;;;;;;;19.10;82.80;;;;;;4173798;28;20303;-53
2023/10/04 12:45:00;;;;;;;;;;;19.10;83.60;;;;;;4157976;28;20287;-55
2023/10/04 12:47:42;;;;;;;;;;;19.10;82.80;;;;;;4167883;28;20299;-50
2023/10/04 12:50:24;;;;;;;;;;;19.10;82.80;;;;;;4174445;28;19935;-51
2023/10/04 12:53:09;;;;;;;;;;;19.10;83.60;;;;;;4173529;28;19963;-53
2023/10/04 12:55:51;;;;;;;;;;;19.10;82.60;;;;;;4174872;28;19932;-51
2023/10/04 12:58:33;;;;;;;;;;;19.20;83.40;;;;;;4174767;28;19940;-51
2023/10/04 13:01:13;;;;;;;;;;;19.20;82.50;;;;;;4157976;28;20391;-53
2023/10/04 13:03:55;;;;;;;;;;;19.20;82.40;;;;;;4158174;28;19936;-52
2023/10/04 13:06:37;;;;;;;;;;;19.20;82.20;;;;;;4188467;28;19947;-53
2023/10/04 13:09:19;;;;;;;;;;;19.20;82.10;;;;;;4174543;28;19932;-54
2023/10/04 13:12:00;;;;;;;;;;;19.20;82.00;;;;;;4174610;28;20397;-54
2023/10/04 13:14:42;;;;;;;;;;;19.20;82.00;;;;;;4174595;28;20021;-52
2023/10/04 13:17:23;;;;;;;;;;;19.20;82.00;;;;;;4163154;28;19935;-53
2023/10/04 13:20:10;;;;;;;;;;;19.20;82.00;;;;;;4158008;28;20447;-51
2023/10/04 13:22:52;;;;;;;;;;;19.20;82.10;;;;;;4194864;28;19931;-53
2023/10/04 13:25:33;;;;;;;;;;;19.20;81.90;;;;;;4173550;28;20050;-50
2023/10/04 13:28:17;;;;;;;;;;;19.20;81.90;;;;;;4172869;28;19935;-51
2023/10/04 13:30:58;;;;;;;;;;;19.20;82.00;;;;;;4173838;28;19931;-52
2023/10/04 13:33:39;;;;;;;;;;;19.20;82.00;;;;;;4172817;28;20386;-53
2023/10/04 13:36:21;;;;;;;;;;;19.20;82.90;;;;;;4173780;28;19936;-55
2023/10/04 13:39:02;;;;;;;;;;;19.20;82.00;;;;;;4174201;28;19931;-53
2023/10/04 13:41:43;;;;;;;;;;;19.20;81.80;;;;;;4173845;28;20414;-53
2023/10/04 13:44:25;;;;;;;;;;;19.20;82.70;;;;;;4173960;28;19936;-53
2023/10/04 13:47:08;;;;;;;;;;;19.20;81.80;;;;;;4172600;28;19936;-53
2023/10/04 13:49:49;;;;;;;;;;;19.20;81.80;;;;;;4172896;28;19936;-53
2023/10/04 13:52:31;;;;;;;;;;;19.20;81.90;;;;;;4173520;28;20433;-55
2023/10/04 13:55:12;;;;;;;;;;;19.20;81.80;;;;;;4186232;28;19935;-55
2023/10/04 13:57:55;;;;;;;;;;;19.20;81.70;;;;;;4200898;28;20050;-55
2023/10/04 14:00:41;;;;;;;;;;;19.20;81.70;;;;;;4173692;28;20051;-54
2023/10/04 14:03:22;;;;;;;;;;;19.20;81.70;;;;;;4173441;28;19936;-54
2023/10/04 14:06:10;;;;;;;;;;;19.20;81.70;;;;;;4173235;28;20679;-55
2023/10/04 14:08:52;;;;;;;;;;;19.20;81.80;;;;;;4186856;28;20648;-54
2023/10/04 14:11:33;;;;;;;;;;;19.20;81.80;;;;;;4182948;28;20296;-54
2023/10/04 14:14:14;;;;;;;;;;;19.20;82.10;;;;;;4187832;28;19931;-55
2023/10/04 14:16:55;;;;;;;;;;;19.20;82.80;;;;;;4161655;28;19979;-54
2023/10/04 14:19:38;;;;;;;;;;;19.20;83.50;;;;;;4173338;28;20291;-52
2023/10/04 14:22:19;;;;;;;;;;;19.20;83.70;;;;;;4183681;28;19962;-55
2023/10/04 14:25:03;;;;;;;;;;;19.20;84.00;;;;;;4173279;28;19935;-54
2023/10/04 14:27:44;;;;;;;;;;;19.20;84.50;;;;;;4172827;28;20013;-56
2023/10/04 14:30:25;;;;;;;;;;;19.20;84.60;;;;;;4173355;28;20001;-54
2023/10/04 14:33:06;;;;;;;;;;;19.20;84.70;;;;;;4173051;28;20398;-56
2023/10/04 14:35:50;;;;;;;;;;;19.20;84.70;;;;;;4172161;28;19931;-55
2023/10/04 14:38:32;;;;;;;;;;;19.20;84.70;;;;;;4172610;28;19953;-56
2023/10/04 14:41:15;;;;;;;;;;;19.20;84.80;;;;;;4172468;28;20287;-55
2023/10/04 14:43:57;;;;;;;;;;;19.10;85.40;;;;;;4172811;28;19932;-55
2023/10/04 14:46:38;;;;;;;;;;;19.10;85.30;;;;;;4156422;28;19983;-56
2023/10/04 14:49:19;;;;;;;;;;;19.10;85.20;;;;;;4166187;28;19935;-53
2023/10/04 14:52:00;;;;;;;;;;;19.10;85.20;;;;;;4172688;28;19978;-56
2023/10/04 14:54:41;;;;;;;;;;;19.10;85.30;;;;;;4171489;28;19978;-54
2023/10/04 14:57:23;;;;;;;;;;;19.10;85.20;;;;;;4172808;28;20007;-55
2023/10/04 15:00:07;;;;;;;;;;;19.10;85.00;;;;;;4172255;28;20272;-55
2023/10/04 15:02:48;;;;;;;;;;;19.10;85.00;;;;;;4186021;28;19931;-55
2023/10/04 15:05:29;;;;;;;;;;;19.10;85.20;;;;;;4173136;28;19935;-55
2023/10/04 15:08:10;;;;;;;;;;;19.10;85.10;;;;;;4171845;28;20037;-55
2023/10/04 15:10:52;;;;;;;;;;;19.10;86.00;;;;;;4172648;28;19935;-53
2023/10/04 15:13:34;;;;;;;;;;;19.10;85.30;;;;;;4172360;28;20275;-55
2023/10/04 15:16:14;;;;;;;;;;;19.10;85.20;;;;;;4155997;28;19955;-54
2023/10/04 15:18:56;;;;;;;;;;;19.10;85.10;;;;;;4156251;28;19936;-53
2023/10/04 15:21:37;;;;;;;;;;;19.10;85.20;;;;;;4155797;28;19978;-55
2023/10/04 15:24:18;;;;;;;;;;;19.10;85.30;;;;;;4168508;28;20421;-55
2023/10/04 15:26:58;;;;;;;;;;;19.10;85.70;;;;;;4172035;28;19936;-53
2023/10/04 15:29:42;;;;;;;;;;;19.10;85.60;;;;;;4171789;28;19975;-52
2023/10/04 15:32:24;;;;;;;;;;;19.10;85.70;;;;;;4188842;28;19931;-54
2023/10/04 15:35:08;;;;;;;;;;;19.10;85.60;;;;;;4157382;28;19993;-55
2023/10/04 15:37:50;;;;;;;;;;;19.10;85.60;;;;;;4172140;28;19935;-52
2023/10/04 15:40:31;;;;;;;;;;;19.20;86.50;;;;;;4168341;28;20378;-52
2023/10/04 15:43:17;;;;;;;;;;;19.10;85.70;;;;;;4181796;28;20068;-53